Mesa Verde National Park, Colorado
Current Conditions -  °F | °C
As of 4:53 PM on Wednesday 22 Oct 2014 (Local Time) from KCEZ Reporting Station
Clear Clear  
Wind Chill: 68°   Ceiling: Unl
Heat Index: 68°   Visibility: 10mi
Dew Point: 34°   Wind: 10mph
Humidity: 28%   Direction: 300°WNW
Pressure: 30.17"   Gusts: NA
Location:  37.1877°N, 108.492°W
Report Text: KCEZ 222253Z AUTO 30009KT 10SM CLR 20/01 A3017 RMK AO2 SLP168 T02000011
Loading
Personal Weather Stations






























Interactive Weather Map New forecast layout! Learn more

10-Day Weather Forecast

Advertisements
Track Severe Weather on mobile